Time;durP1;ratioP1;P1;durP2;ratioP2;P2;SDS_P1;SDS_P2;PMS_P1;PMS_P2;Temp;Humidity;BMP_temperature;BMP_pressure;BME280_temperature;BME280_humidity;BME280_pressure;Samples;Min_cycle;Max_cycle;Signal;HPM_P1;HPM_P2
2020/12/11 00:02:10;;;;;;;37.93;29.17;;;0.30;99.90;;;;;;4960250;28;20470;-71
2020/12/11 00:04:36;;;;;;;43.67;26.87;;;0.30;99.90;;;;;;4956644;28;20471;-71
2020/12/11 00:07:03;;;;;;;39.77;28.50;;;0.40;99.90;;;;;;4956696;28;20467;-73
2020/12/11 00:09:29;;;;;;;36.27;27.50;;;0.40;99.90;;;;;;4957631;28;20485;-72
2020/12/11 00:11:57;;;;;;;37.93;27.83;;;0.40;99.90;;;;;;4962769;28;21062;-73
2020/12/11 00:14:23;;;;;;;41.70;28.50;;;0.40;99.90;;;;;;4963870;28;20474;-73
2020/12/11 00:16:50;;;;;;;37.23;26.30;;;0.40;99.90;;;;;;4957857;28;20522;-73
2020/12/11 00:19:16;;;;;;;40.87;28.90;;;0.30;99.90;;;;;;4959860;28;20469;-72
2020/12/11 00:21:44;;;;;;;35.87;29.10;;;0.30;99.90;;;;;;4961381;28;20947;-72
2020/12/11 00:24:12;;;;;;;28.67;25.03;;;0.40;99.90;;;;;;4955980;28;20494;-73
2020/12/11 00:26:38;;;;;;;35.10;25.93;;;0.40;99.90;;;;;;4955298;28;20478;-73
2020/12/11 00:29:06;;;;;;;38.77;28.73;;;0.40;99.90;;;;;;4956273;28;20481;-73
2020/12/11 00:31:33;;;;;;;31.17;25.50;;;0.40;99.90;;;;;;4955257;28;20739;-73
2020/12/11 00:33:59;;;;;;;35.53;27.63;;;0.40;99.90;;;;;;4956420;28;20467;-72
2020/12/11 00:36:26;;;;;;;42.13;28.50;;;0.40;99.90;;;;;;4957476;28;20521;-74
2020/12/11 00:38:53;;;;;;;31.27;27.27;;;0.40;99.90;;;;;;4964805;28;20471;-71
2020/12/11 00:41:19;;;;;;;41.47;29.73;;;0.50;99.90;;;;;;4960842;28;20962;-73
2020/12/11 00:43:46;;;;;;;33.77;27.10;;;0.40;99.90;;;;;;4960779;28;20463;-74
2020/12/11 00:46:14;;;;;;;38.57;29.00;;;0.40;99.90;;;;;;4957275;28;20464;-74
2020/12/11 00:48:40;;;;;;;38.20;28.37;;;0.50;99.90;;;;;;4959383;28;20456;-72
2020/12/11 00:51:07;;;;;;;32.00;26.60;;;0.50;99.90;;;;;;4952837;28;21308;-73
2020/12/11 00:53:34;;;;;;;36.40;29.10;;;0.50;99.90;;;;;;4952185;28;20456;-74
2020/12/11 00:56:00;;;;;;;41.70;29.07;;;0.50;99.90;;;;;;4951867;28;20497;-73
2020/12/11 00:58:26;;;;;;;33.10;28.20;;;0.50;99.90;;;;;;4952017;28;20547;-73
2020/12/11 01:00:52;;;;;;;34.13;28.00;;;0.50;99.90;;;;;;4952275;28;20471;-73
2020/12/11 01:03:21;;;;;;;32.63;27.07;;;0.50;99.90;;;;;;4950657;28;21002;-72
2020/12/11 01:05:47;;;;;;;38.73;30.53;;;0.50;99.90;;;;;;4954194;28;20799;-73
2020/12/11 01:08:13;;;;;;;35.53;28.13;;;0.50;99.90;;;;;;4950741;28;20475;-73
2020/12/11 01:10:40;;;;;;;41.70;29.13;;;0.50;99.90;;;;;;4948794;28;21050;-72
2020/12/11 01:13:06;;;;;;;33.47;27.50;;;0.50;99.90;;;;;;4950172;28;20471;-72
2020/12/11 01:15:33;;;;;;;33.30;26.93;;;0.50;99.90;;;;;;4949358;28;20477;-74
2020/12/11 01:17:59;;;;;;;33.67;27.33;;;0.50;99.90;;;;;;4950627;28;20498;-73
2020/12/11 01:20:26;;;;;;;37.47;29.57;;;0.50;99.90;;;;;;4951272;28;20475;-71
2020/12/11 01:22:52;;;;;;;34.53;29.17;;;0.40;99.90;;;;;;4950205;28;20925;-72
2020/12/11 01:25:19;;;;;;;37.13;29.67;;;0.40;99.90;;;;;;4949951;28;20468;-73
2020/12/11 01:27:45;;;;;;;35.27;28.57;;;0.40;99.90;;;;;;4951837;28;20464;-74
2020/12/11 01:30:11;;;;;;;35.47;28.47;;;0.40;99.90;;;;;;4949314;28;20463;-72
2020/12/11 01:32:38;;;;;;;32.67;28.07;;;0.50;99.90;;;;;;4951295;28;20453;-74
2020/12/11 01:35:04;;;;;;;42.73;29.23;;;0.50;99.90;;;;;;4950377;28;20468;-72
2020/12/11 01:37:33;;;;;;;32.17;28.13;;;0.50;99.90;;;;;;4948491;28;20507;-71
2020/12/11 01:39:59;;;;;;;36.27;28.73;;;0.40;99.90;;;;;;4952941;28;20463;-73
2020/12/11 01:42:26;;;;;;;32.43;28.00;;;0.40;99.90;;;;;;4950126;28;20467;-71
2020/12/11 01:44:54;;;;;;;33.93;28.47;;;0.40;99.90;;;;;;4954339;28;20467;-72
2020/12/11 01:47:22;;;;;;;33.17;26.53;;;0.40;99.90;;;;;;4955082;28;20463;-74
2020/12/11 01:49:51;;;;;;;33.00;24.23;;;0.40;99.90;;;;;;4957631;28;20612;-73
2020/12/11 01:52:18;;;;;;;34.27;26.50;;;0.50;99.90;;;;;;4955469;28;20516;-73
2020/12/11 01:54:47;;;;;;;29.50;25.73;;;0.40;99.90;;;;;;4955221;28;20467;-73
2020/12/11 01:57:21;;;;;;;38.43;26.70;;;0.40;99.90;;;;;;4958381;28;20846;-72
2020/12/11 01:59:51;;;;;;;32.77;27.87;;;0.50;99.90;;;;;;4959494;28;20869;-72
2020/12/11 02:02:19;;;;;;;29.23;25.13;;;0.40;99.90;;;;;;4954055;28;20476;-73
2020/12/11 02:04:46;;;;;;;33.40;27.83;;;0.40;99.90;;;;;;4952076;28;20471;-73
2020/12/11 02:07:13;;;;;;;33.50;27.40;;;0.40;99.90;;;;;;4961015;28;20910;-72
2020/12/11 02:09:40;;;;;;;38.23;27.20;;;0.40;99.90;;;;;;4953989;28;20464;-72
2020/12/11 02:12:07;;;;;;;38.30;27.80;;;0.40;99.90;;;;;;4954840;28;20470;-71
2020/12/11 02:14:34;;;;;;;35.13;26.60;;;0.40;99.90;;;;;;4955951;28;20466;-71
2020/12/11 02:17:02;;;;;;;33.23;27.93;;;0.40;99.90;;;;;;4952055;28;20970;-71
2020/12/11 02:19:32;;;;;;;39.03;27.90;;;0.30;99.90;;;;;;4953000;28;20463;-72
2020/12/11 02:22:00;;;;;;;32.13;28.83;;;0.30;99.90;;;;;;4956072;28;22827;-71
2020/12/11 02:24:26;;;;;;;34.53;28.27;;;0.30;99.90;;;;;;4960699;28;20471;-73
2020/12/11 02:26:55;;;;;;;32.87;27.27;;;0.30;99.90;;;;;;4966540;28;20565;-72
2020/12/11 02:29:22;;;;;;;38.60;29.77;;;0.20;99.90;;;;;;4953455;28;20533;-72
2020/12/11 02:31:48;;;;;;;35.43;28.10;;;0.20;99.90;;;;;;4952440;28;20479;-72
2020/12/11 02:34:14;;;;;;;30.63;26.77;;;0.20;99.90;;;;;;4962201;28;20474;-72
2020/12/11 02:36:41;;;;;;;36.03;27.80;;;0.20;99.90;;;;;;4952153;28;20511;-71
2020/12/11 02:39:08;;;;;;;32.67;29.07;;;0.20;99.90;;;;;;4956262;28;20828;-72
2020/12/11 02:41:34;;;;;;;34.60;28.50;;;0.10;99.90;;;;;;4954867;28;20510;-72
2020/12/11 02:44:01;;;;;;;33.73;27.93;;;0.20;99.90;;;;;;4952368;28;20856;-71
2020/12/11 02:46:28;;;;;;;35.53;28.37;;;0.10;99.90;;;;;;4956363;28;20469;-72
2020/12/11 02:48:54;;;;;;;33.17;26.90;;;0.10;99.90;;;;;;4953474;28;20805;-73
2020/12/11 02:51:21;;;;;;;33.77;28.13;;;0.10;99.90;;;;;;4958119;28;20474;-73
2020/12/11 02:53:49;;;;;;;35.57;28.83;;;0.10;99.90;;;;;;4954990;28;20462;-73
2020/12/11 02:56:18;;;;;;;36.50;29.00;;;0.20;99.90;;;;;;4947663;28;20507;-72
2020/12/11 02:58:45;;;;;;;37.83;29.60;;;0.10;99.90;;;;;;4954016;28;20471;-72
2020/12/11 03:01:12;;;;;;;38.40;28.50;;;0.10;99.90;;;;;;4966864;28;20472;-72
2020/12/11 03:03:38;;;;;;;35.67;30.20;;;0.10;99.90;;;;;;4955443;28;22008;-72
2020/12/11 03:06:05;;;;;;;33.50;27.30;;;0.10;99.90;;;;;;4957925;28;20454;-72
2020/12/11 03:08:32;;;;;;;42.40;28.70;;;0.10;99.90;;;;;;4959975;28;20478;-72
2020/12/11 03:10:58;;;;;;;38.93;31.37;;;0.10;99.90;;;;;;4956406;28;20936;-72
2020/12/11 03:13:26;;;;;;;39.03;30.00;;;0.10;99.90;;;;;;4953126;28;20463;-72
2020/12/11 03:15:52;;;;;;;37.33;28.70;;;0.10;99.90;;;;;;4954510;28;20494;-72
2020/12/11 03:18:18;;;;;;;34.20;27.43;;;0.10;99.90;;;;;;4959936;28;20809;-72
2020/12/11 03:20:45;;;;;;;37.27;28.10;;;0.10;99.90;;;;;;4952669;28;20467;-72
2020/12/11 03:23:12;;;;;;;33.83;26.13;;;0.10;99.90;;;;;;4950214;28;20468;-72
2020/12/11 03:25:38;;;;;;;37.37;28.47;;;0.20;99.90;;;;;;4950989;28;20999;-72
2020/12/11 03:28:04;;;;;;;39.10;29.10;;;0.20;99.90;;;;;;4954706;28;20493;-73
2020/12/11 03:30:32;;;;;;;33.40;26.90;;;0.20;99.90;;;;;;4952330;28;20463;-72
2020/12/11 03:32:58;;;;;;;34.93;26.63;;;0.20;99.90;;;;;;4953024;28;20843;-72
2020/12/11 03:35:24;;;;;;;39.10;29.20;;;0.20;99.90;;;;;;4941801;28;570866;-73
2020/12/11 03:37:51;;;;;;;32.33;28.50;;;0.20;99.90;;;;;;4959281;28;20568;-72
2020/12/11 03:40:17;;;;;;;34.77;29.23;;;0.20;99.90;;;;;;4956105;28;20954;-73
2020/12/11 03:42:43;;;;;;;37.90;28.40;;;0.10;99.90;;;;;;4956957;28;20487;-72
2020/12/11 03:45:10;;;;;;;32.07;27.13;;;0.20;99.90;;;;;;4956364;28;20474;-71
2020/12/11 03:47:37;;;;;;;38.30;29.67;;;0.20;99.90;;;;;;4956952;28;20806;-72
2020/12/11 03:50:03;;;;;;;40.07;28.13;;;0.20;99.90;;;;;;4960397;28;20918;-71
2020/12/11 03:52:30;;;;;;;42.27;27.63;;;0.20;99.90;;;;;;4952498;28;20840;-73
2020/12/11 03:54:56;;;;;;;38.97;27.60;;;0.20;99.90;;;;;;4957263;28;20467;-71
2020/12/11 03:57:23;;;;;;;38.83;27.70;;;0.20;99.90;;;;;;4957977;28;20927;-72
2020/12/11 03:59:49;;;;;;;38.00;27.10;;;0.20;99.90;;;;;;4958507;28;20825;-72
2020/12/11 04:02:16;;;;;;;31.43;26.13;;;0.10;99.90;;;;;;4953533;28;20457;-72
2020/12/11 04:04:43;;;;;;;38.10;28.70;;;0.10;99.90;;;;;;4955716;28;20473;-73
2020/12/11 04:07:10;;;;;;;37.13;28.53;;;0.10;99.90;;;;;;4957660;28;20466;-74
2020/12/11 04:09:37;;;;;;;42.67;30.90;;;0.10;99.90;;;;;;4956100;28;20448;-72
2020/12/11 04:12:03;;;;;;;37.80;30.33;;;0.10;99.90;;;;;;4962302;28;20471;-72
2020/12/11 04:14:30;;;;;;;40.90;32.67;;;0.10;99.90;;;;;;4963660;28;20491;-73
2020/12/11 04:16:59;;;;;;;39.63;29.67;;;0.20;99.90;;;;;;4959297;28;20477;-72
2020/12/11 04:19:25;;;;;;;39.20;31.23;;;0.20;99.90;;;;;;4956219;28;20992;-72
2020/12/11 04:21:53;;;;;;;36.60;29.97;;;0.20;99.90;;;;;;4960521;28;20470;-72
2020/12/11 04:24:20;;;;;;;39.57;28.00;;;0.10;99.90;;;;;;4964309;28;20467;-72
2020/12/11 04:26:47;;;;;;;35.83;28.47;;;0.10;99.90;;;;;;4957293;28;20477;-73
2020/12/11 04:29:13;;;;;;;32.70;26.60;;;0.10;99.90;;;;;;4958013;28;20488;-72
2020/12/11 04:31:41;;;;;;;42.63;29.10;;;0.10;99.90;;;;;;4961160;28;20910;-72
2020/12/11 04:34:07;;;;;;;41.80;30.33;;;0.20;99.90;;;;;;4958584;28;20951;-72
2020/12/11 04:36:34;;;;;;;44.13;29.13;;;0.10;99.90;;;;;;4958397;28;20501;-72
2020/12/11 04:39:01;;;;;;;43.10;29.17;;;0.20;99.90;;;;;;4962695;28;20475;-72
2020/12/11 04:41:35;;;;;;;42.57;31.03;;;0.10;99.90;;;;;;4960528;28;20577;-73
2020/12/11 04:44:02;;;;;;;38.00;30.23;;;0.10;99.90;;;;;;4955791;28;20487;-72
2020/12/11 04:46:29;;;;;;;31.63;25.53;;;0.10;99.90;;;;;;4953911;28;20813;-73
2020/12/11 04:48:56;;;;;;;38.70;26.20;;;0.10;99.90;;;;;;4956140;28;20481;-71
2020/12/11 04:51:24;;;;;;;35.33;27.13;;;0.10;99.90;;;;;;4953209;28;20462;-72
2020/12/11 04:53:53;;;;;;;34.07;27.33;;;0.10;99.90;;;;;;4950465;28;20483;-72
2020/12/11 04:56:22;;;;;;;40.93;29.07;;;0.10;99.90;;;;;;4952777;28;20583;-72
2020/12/11 04:58:52;;;;;;;35.93;28.03;;;0.20;99.90;;;;;;4952203;28;20463;-71
2020/12/11 05:01:27;;;;;;;32.70;27.50;;;0.10;99.90;;;;;;4954191;28;20462;-72
2020/12/11 05:03:55;;;;;;;36.17;26.90;;;0.10;99.90;;;;;;4962739;28;20454;-72
2020/12/11 05:06:21;;;;;;;38.33;29.47;;;0.20;99.90;;;;;;4965076;28;20515;-73
2020/12/11 05:08:47;;;;;;;34.67;26.73;;;0.20;99.90;;;;;;4967079;28;20856;-72
2020/12/11 05:11:27;;;;;;;35.70;29.40;;;0.20;99.90;;;;;;4966842;28;20494;-72
2020/12/11 05:13:54;;;;;;;35.90;28.70;;;0.10;99.90;;;;;;4960062;28;20470;-73
2020/12/11 05:16:21;;;;;;;42.00;28.40;;;0.10;99.90;;;;;;4970496;28;20458;-73
2020/12/11 05:19:01;;;;;;;35.73;29.60;;;0.20;99.90;;;;;;4968786;28;20502;-73
2020/12/11 05:21:27;;;;;;;33.80;28.07;;;0.20;99.90;;;;;;4967960;28;20471;-72
2020/12/11 05:23:58;;;;;;;36.17;28.80;;;0.10;99.90;;;;;;4967082;28;20472;-72
2020/12/11 05:26:26;;;;;;;34.93;28.53;;;0.10;99.90;;;;;;4967775;28;20482;-71
2020/12/11 05:28:53;;;;;;;36.37;28.10;;;0.10;99.90;;;;;;4962737;28;20941;-73
2020/12/11 05:31:20;;;;;;;39.30;30.17;;;0.10;99.90;;;;;;4965213;28;20468;-72
2020/12/11 05:34:03;;;;;;;33.70;28.77;;;0.10;99.90;;;;;;4967434;28;20478;-73
2020/12/11 05:36:40;;;;;;;36.43;28.80;;;0.10;99.90;;;;;;4964047;28;20490;-72
2020/12/11 05:39:07;;;;;;;34.20;28.33;;;0.10;99.90;;;;;;4967881;28;20474;-73
2020/12/11 05:41:34;;;;;;;32.00;28.30;;;0.20;99.90;;;;;;4967266;28;20985;-73
2020/12/11 05:44:00;;;;;;;37.93;28.57;;;0.20;99.90;;;;;;4967227;28;20470;-72
2020/12/11 05:46:30;;;;;;;38.80;29.67;;;0.30;99.90;;;;;;4970141;28;20481;-72
2020/12/11 05:48:58;;;;;;;35.43;28.17;;;0.30;99.90;;;;;;4967874;28;20456;-73
2020/12/11 05:51:33;;;;;;;37.97;28.40;;;0.30;99.90;;;;;;4964378;28;20873;-73
2020/12/11 05:54:03;;;;;;;38.53;30.47;;;0.30;99.90;;;;;;4963092;28;20472;-72
2020/12/11 05:56:31;;;;;;;38.07;29.10;;;0.20;99.90;;;;;;4967515;28;20490;-72
2020/12/11 05:58:59;;;;;;;37.77;28.80;;;0.20;99.90;;;;;;4967406;28;20467;-72
2020/12/11 06:01:25;;;;;;;37.27;30.47;;;0.10;99.90;;;;;;4966865;28;20467;-73
2020/12/11 06:03:52;;;;;;;38.33;30.13;;;0.10;99.90;;;;;;4968057;28;20454;-72
2020/12/11 06:06:19;;;;;;;37.00;29.17;;;0.10;99.90;;;;;;4968062;28;20516;-73
2020/12/11 06:08:45;;;;;;;43.40;30.53;;;0.20;99.90;;;;;;4967329;28;20466;-71
2020/12/11 06:11:20;;;;;;;39.30;30.20;;;0.20;99.90;;;;;;4966703;28;20493;-72
2020/12/11 06:13:50;;;;;;;39.17;29.17;;;0.20;99.90;;;;;;4965420;28;20773;-72
2020/12/11 06:16:22;;;;;;;39.60;30.23;;;0.30;99.90;;;;;;4963647;28;21064;-73
2020/12/11 06:18:54;;;;;;;42.37;29.30;;;0.30;99.90;;;;;;4967293;28;20482;-73
2020/12/11 06:21:22;;;;;;;41.53;30.43;;;0.30;99.90;;;;;;4968132;28;20463;-72
2020/12/11 06:23:48;;;;;;;36.73;30.03;;;0.40;99.90;;;;;;4966186;28;20479;-73
2020/12/11 06:26:15;;;;;;;50.93;30.83;;;0.30;99.90;;;;;;4966975;28;20480;-72
2020/12/11 06:28:44;;;;;;;36.23;29.30;;;0.40;99.90;;;;;;4963414;28;20534;-72
2020/12/11 06:31:12;;;;;;;37.33;28.93;;;0.40;99.90;;;;;;4966126;28;20470;-72
2020/12/11 06:33:42;;;;;;;38.70;29.50;;;0.40;99.90;;;;;;4967456;28;20469;-72
2020/12/11 06:36:08;;;;;;;42.47;31.70;;;0.40;99.90;;;;;;4962147;28;20478;-72
2020/12/11 06:38:47;;;;;;;39.37;27.87;;;0.40;99.90;;;;;;4966314;28;20487;-72
2020/12/11 06:41:14;;;;;;;38.13;26.63;;;0.40;99.90;;;;;;4966218;28;20470;-71
2020/12/11 06:43:43;;;;;;;42.70;30.00;;;0.40;99.90;;;;;;4965665;28;20984;-73
2020/12/11 06:46:18;;;;;;;39.40;30.50;;;0.40;99.90;;;;;;4969552;28;20464;-72
2020/12/11 06:49:09;;;;;;;37.13;29.23;;;0.40;99.90;;;;;;4967156;28;20517;-72
2020/12/11 06:52:12;;;;;;;40.80;29.03;;;0.40;99.90;;;;;;4954783;28;20471;-73
2020/12/11 06:54:52;;;;;;;37.80;31.60;;;0.40;99.90;;;;;;4966728;28;20850;-72
2020/12/11 06:57:33;;;;;;;43.50;31.00;;;0.40;99.90;;;;;;4960748;28;20494;-73
2020/12/11 06:59:59;;;;;;;37.63;29.23;;;0.40;99.90;;;;;;4963982;28;20471;-74
2020/12/11 07:02:26;;;;;;;44.43;33.10;;;0.40;99.90;;;;;;4961986;28;20466;-72
2020/12/11 07:04:53;;;;;;;40.30;30.47;;;0.40;99.90;;;;;;4962119;28;20488;-73
2020/12/11 07:07:29;;;;;;;37.70;30.83;;;0.40;99.90;;;;;;4966678;28;20478;-71
2020/12/11 07:09:56;;;;;;;37.53;31.20;;;0.50;99.90;;;;;;4966878;28;20492;-73
2020/12/11 07:12:24;;;;;;;41.37;30.53;;;0.50;99.90;;;;;;4966912;28;20798;-72
2020/12/11 07:14:51;;;;;;;36.80;28.80;;;0.60;99.90;;;;;;4966643;28;20569;-73
2020/12/11 07:17:25;;;;;;;35.50;28.80;;;0.50;99.90;;;;;;4966488;28;20828;-74
2020/12/11 07:19:51;;;;;;;34.83;29.03;;;0.50;99.90;;;;;;4965871;28;20462;-72
2020/12/11 07:22:20;;;;;;;34.33;28.40;;;0.60;99.90;;;;;;4961239;28;20857;-71
2020/12/11 07:24:47;;;;;;;38.30;29.23;;;0.60;99.90;;;;;;4958538;28;20965;-73
2020/12/11 07:27:14;;;;;;;36.03;29.17;;;0.60;99.90;;;;;;4966476;28;20477;-72
2020/12/11 07:29:48;;;;;;;40.17;28.30;;;0.70;99.90;;;;;;4967186;28;20479;-74
2020/12/11 07:32:18;;;;;;;34.73;28.53;;;0.70;99.90;;;;;;4965193;28;20907;-73
2020/12/11 07:34:45;;;;;;;34.50;28.00;;;0.70;99.90;;;;;;4963652;28;20466;-73
2020/12/11 07:37:12;;;;;;;37.60;27.07;;;0.60;99.90;;;;;;4962031;28;20495;-73
2020/12/11 07:39:39;;;;;;;35.30;27.17;;;0.70;99.90;;;;;;4965900;28;20459;-73
2020/12/11 07:42:07;;;;;;;33.13;27.83;;;0.70;99.90;;;;;;4960500;28;20454;-76
2020/12/11 07:44:37;;;;;;;30.30;26.87;;;0.80;99.90;;;;;;4965097;28;20524;-75
2020/12/11 07:47:06;;;;;;;33.47;27.57;;;0.90;99.90;;;;;;4967458;28;20497;-75
2020/12/11 07:49:37;;;;;;;30.60;26.03;;;0.90;99.90;;;;;;4965853;28;20958;-73
2020/12/11 07:52:04;;;;;;;31.13;27.77;;;1.00;99.90;;;;;;4965429;28;20499;-73
2020/12/11 07:54:35;;;;;;;32.17;28.67;;;1.10;99.90;;;;;;4960996;28;20456;-73
2020/12/11 07:57:09;;;;;;;30.97;26.73;;;1.10;99.90;;;;;;4960909;28;20854;-73
2020/12/11 07:59:35;;;;;;;28.20;25.20;;;1.20;99.90;;;;;;4962371;28;20845;-72
2020/12/11 08:02:03;;;;;;;30.73;27.43;;;1.20;99.90;;;;;;4963382;28;20897;-73
2020/12/11 08:04:30;;;;;;;29.93;26.83;;;1.20;99.90;;;;;;4965359;28;20975;-73
2020/12/11 08:06:58;;;;;;;30.43;27.30;;;1.20;99.90;;;;;;4963426;28;20466;-73
2020/12/11 08:09:30;;;;;;;33.93;28.77;;;1.20;99.90;;;;;;4964216;28;20793;-73
2020/12/11 08:12:18;;;;;;;31.70;28.30;;;1.30;99.90;;;;;;4964945;28;20462;-73
2020/12/11 08:14:45;;;;;;;29.90;26.77;;;1.30;99.90;;;;;;4957761;28;20467;-73
2020/12/11 08:17:12;;;;;;;34.47;29.53;;;1.30;99.90;;;;;;4965371;28;20494;-73
2020/12/11 08:19:39;;;;;;;29.50;26.40;;;1.30;99.90;;;;;;4967971;28;20482;-73
2020/12/11 08:22:13;;;;;;;33.70;28.20;;;1.40;99.90;;;;;;4965427;28;20471;-73
2020/12/11 08:24:39;;;;;;;36.13;29.80;;;1.40;99.90;;;;;;4963047;28;20964;-72
2020/12/11 08:27:06;;;;;;;28.50;25.23;;;1.40;99.90;;;;;;4969575;28;20800;-73
2020/12/11 08:29:33;;;;;;;31.80;28.13;;;1.40;99.90;;;;;;4968646;28;20498;-72
2020/12/11 08:32:00;;;;;;;35.60;27.87;;;1.50;99.90;;;;;;4967351;28;20483;-72
2020/12/11 08:34:29;;;;;;;32.13;28.60;;;1.50;99.90;;;;;;4968364;28;20473;-73
2020/12/11 08:37:03;;;;;;;31.00;27.03;;;1.50;99.90;;;;;;4965314;28;20498;-73
2020/12/11 08:39:29;;;;;;;30.77;27.47;;;1.50;99.90;;;;;;4967433;28;20580;-73
2020/12/11 08:42:09;;;;;;;28.93;25.90;;;1.60;99.90;;;;;;4964973;28;20462;-73
2020/12/11 08:45:00;;;;;;;31.37;27.27;;;1.60;99.90;;;;;;4965446;28;20560;-73
2020/12/11 08:50:21;;;;;;;29.70;26.00;;;1.70;99.90;;;;;;4966903;28;20463;-72
2020/12/11 08:52:47;;;;;;;27.47;24.67;;;1.70;99.90;;;;;;4967160;28;20864;-73
2020/12/11 08:55:13;;;;;;;33.37;26.90;;;1.70;99.90;;;;;;4967404;28;20482;-71
2020/12/11 08:57:41;;;;;;;32.17;26.30;;;1.80;99.90;;;;;;4968151;28;20498;-71
2020/12/11 09:00:08;;;;;;;31.00;26.77;;;1.80;99.90;;;;;;4968083;28;20459;-72
2020/12/11 09:02:35;;;;;;;27.60;24.70;;;1.80;99.90;;;;;;4965229;28;20463;-72
2020/12/11 09:05:01;;;;;;;29.00;23.80;;;1.80;99.90;;;;;;4969107;28;20471;-72
2020/12/11 09:07:28;;;;;;;29.70;26.30;;;1.90;99.90;;;;;;4966649;28;20746;-73
2020/12/11 09:09:55;;;;;;;32.73;26.80;;;2.00;99.90;;;;;;4960453;28;20471;-72
2020/12/11 09:12:22;;;;;;;29.67;26.60;;;2.00;99.90;;;;;;4961943;28;20487;-72
2020/12/11 09:14:48;;;;;;;30.67;27.57;;;2.00;99.90;;;;;;4967797;28;20499;-71
2020/12/11 09:17:15;;;;;;;28.27;25.27;;;2.10;99.90;;;;;;4964627;28;20860;-72
2020/12/11 09:19:42;;;;;;;30.50;25.57;;;2.20;99.90;;;;;;4965408;28;20452;-71
2020/12/11 09:22:08;;;;;;;30.57;27.27;;;2.20;99.90;;;;;;4963045;28;20471;-73
2020/12/11 09:24:34;;;;;;;29.43;26.47;;;2.30;99.90;;;;;;4966227;28;20533;-72
2020/12/11 09:27:01;;;;;;;29.07;26.07;;;2.30;99.90;;;;;;4965840;28;20470;-72
2020/12/11 09:29:30;;;;;;;30.00;26.87;;;2.40;99.90;;;;;;4969299;28;20856;-73
2020/12/11 09:31:58;;;;;;;27.67;24.77;;;2.50;99.90;;;;;;4967544;28;20470;-72
2020/12/11 09:34:25;;;;;;;29.83;26.87;;;2.60;99.90;;;;;;4966790;28;20468;-73
2020/12/11 09:36:51;;;;;;;29.30;26.30;;;2.70;99.90;;;;;;4965193;28;20788;-73
2020/12/11 09:39:18;;;;;;;28.87;26.07;;;2.80;99.90;;;;;;4967697;28;20988;-73
2020/12/11 09:41:50;;;;;;;28.87;25.97;;;2.90;99.90;;;;;;4967930;28;20455;-73
2020/12/11 09:44:38;;;;;;;36.80;28.57;;;3.00;99.90;;;;;;4966651;28;20474;-73
2020/12/11 09:49:54;;;;;;;28.70;26.00;;;3.10;99.90;;;;;;4964206;28;20463;-73
2020/12/11 09:52:30;;;;;;;28.90;25.77;;;3.20;99.90;;;;;;4966697;28;20824;-74
2020/12/11 09:54:56;;;;;;;28.77;25.87;;;3.30;99.90;;;;;;4966811;28;20491;-73
2020/12/11 09:57:23;;;;;;;29.77;26.67;;;3.50;99.90;;;;;;4965977;28;20495;-74
2020/12/11 09:59:51;;;;;;;28.37;25.67;;;3.70;99.90;;;;;;4967641;28;20470;-73
2020/12/11 10:02:27;;;;;;;28.77;25.67;;;3.90;99.90;;;;;;4962349;28;21017;-73
2020/12/11 10:04:55;;;;;;;26.47;24.17;;;4.00;99.90;;;;;;4966553;28;20563;-74
2020/12/11 10:07:21;;;;;;;28.67;25.60;;;4.00;99.90;;;;;;4966712;28;20522;-74
2020/12/11 10:09:47;;;;;;;26.73;24.03;;;4.10;99.90;;;;;;4966852;28;20467;-75
2020/12/11 10:12:16;;;;;;;27.07;24.57;;;4.00;99.90;;;;;;4966097;28;20464;-74
2020/12/11 10:14:44;;;;;;;27.53;25.13;;;3.90;99.90;;;;;;4963528;28;20530;-72
2020/12/11 10:17:11;;;;;;;28.43;25.70;;;3.90;99.90;;;;;;4970023;28;21360;-73
2020/12/11 10:19:37;;;;;;;25.30;23.10;;;4.00;99.90;;;;;;4964863;28;20460;-75
2020/12/11 10:22:05;;;;;;;27.27;24.77;;;4.00;99.90;;;;;;4974945;28;20459;-74
2020/12/11 10:24:31;;;;;;;25.77;23.30;;;4.10;99.90;;;;;;4981666;28;20454;-75
2020/12/11 10:26:57;;;;;;;28.07;25.47;;;4.20;99.90;;;;;;4977673;28;20838;-74
2020/12/11 10:29:24;;;;;;;28.77;24.07;;;4.30;99.90;;;;;;4970579;28;20491;-74
2020/12/11 10:31:50;;;;;;;22.97;20.87;;;4.20;99.90;;;;;;4970148;28;20463;-74
2020/12/11 10:34:17;;;;;;;25.17;23.00;;;4.10;99.90;;;;;;4968719;28;20467;-75
2020/12/11 10:36:45;;;;;;;25.60;22.93;;;4.20;99.90;;;;;;4969168;28;20483;-73
2020/12/11 10:39:13;;;;;;;25.17;23.07;;;4.10;99.90;;;;;;4966953;28;20467;-74
2020/12/11 10:41:39;;;;;;;26.80;24.20;;;4.10;99.90;;;;;;4964612;28;20826;-73
2020/12/11 10:44:06;;;;;;;24.90;21.63;;;4.00;99.90;;;;;;4970091;28;20818;-74
2020/12/11 10:46:33;;;;;;;22.30;20.40;;;4.00;99.90;;;;;;4963446;28;20823;-73
2020/12/11 10:48:59;;;;;;;24.67;22.67;;;4.00;99.90;;;;;;4964945;28;20462;-74
2020/12/11 10:51:26;;;;;;;24.33;22.13;;;4.00;99.90;;;;;;4961992;28;20464;-74
2020/12/11 10:53:52;;;;;;;23.33;21.23;;;4.00;99.90;;;;;;4965761;28;20467;-73
2020/12/11 10:56:20;;;;;;;23.73;21.73;;;4.10;99.90;;;;;;4965670;28;22065;-75
2020/12/11 10:58:47;;;;;;;25.43;23.03;;;4.10;99.90;;;;;;4968151;28;20783;-74
2020/12/11 11:01:14;;;;;;;24.00;21.80;;;4.10;99.90;;;;;;4968263;28;20451;-74
2020/12/11 11:03:41;;;;;;;21.93;19.93;;;4.20;99.90;;;;;;4967132;28;20511;-74
2020/12/11 11:06:13;;;;;;;21.90;20.00;;;4.20;99.90;;;;;;4967011;28;20466;-73
2020/12/11 11:08:52;;;;;;;22.30;20.43;;;4.30;99.90;;;;;;4969057;28;20558;-73
2020/12/11 11:11:23;;;;;;;26.77;22.13;;;4.30;99.90;;;;;;4966738;28;20850;-74
2020/12/11 11:14:08;;;;;;;21.63;19.83;;;4.30;99.90;;;;;;4969446;28;20456;-73
2020/12/11 11:16:49;;;;;;;22.67;20.77;;;4.30;99.90;;;;;;4971365;28;20463;-74
2020/12/11 11:19:21;;;;;;;23.00;21.30;;;4.30;99.90;;;;;;4969143;28;20981;-73
2020/12/11 11:22:10;;;;;;;22.57;20.57;;;4.40;99.90;;;;;;4968138;28;20473;-73
2020/12/11 11:25:08;;;;;;;24.07;21.93;;;4.50;99.90;;;;;;4967903;28;20462;-74
2020/12/11 11:27:38;;;;;;;24.07;21.73;;;4.70;99.90;;;;;;4969111;28;20865;-74
2020/12/11 11:30:05;;;;;;;23.40;21.40;;;4.80;99.90;;;;;;4968960;28;20486;-74
2020/12/11 11:32:32;;;;;;;21.70;20.10;;;5.00;99.90;;;;;;4970529;28;20455;-74
2020/12/11 11:34:59;;;;;;;23.40;21.40;;;5.00;99.90;;;;;;4969655;28;20943;-74
2020/12/11 11:37:27;;;;;;;22.97;21.17;;;5.10;99.90;;;;;;4970490;28;20479;-73
2020/12/11 11:39:55;;;;;;;24.43;21.77;;;5.00;99.90;;;;;;4969433;28;20467;-74
2020/12/11 11:42:21;;;;;;;24.80;22.03;;;5.20;99.90;;;;;;4966627;28;20456;-75
2020/12/11 11:44:55;;;;;;;23.50;21.70;;;5.30;99.90;;;;;;4968941;28;20970;-75
2020/12/11 11:47:23;;;;;;;22.73;20.90;;;5.40;99.90;;;;;;4967832;28;20463;-74
2020/12/11 11:52:39;;;;;;;22.30;20.40;;;5.30;99.90;;;;;;4963623;28;20459;-75
2020/12/11 11:55:06;;;;;;;22.17;19.83;;;5.20;99.90;;;;;;4973255;28;20510;-72
2020/12/11 11:57:33;;;;;;;23.53;21.30;;;5.20;99.90;;;;;;4969575;28;20486;-73
2020/12/11 12:00:03;;;;;;;21.90;20.10;;;5.10;99.90;;;;;;4972501;28;20569;-73
2020/12/11 12:02:29;;;;;;;23.87;21.80;;;5.20;99.90;;;;;;4971139;28;20455;-75
2020/12/11 12:04:56;;;;;;;22.60;20.60;;;5.10;99.90;;;;;;4970349;28;20470;-75
2020/12/11 12:07:22;;;;;;;22.67;20.40;;;5.20;99.90;;;;;;4974501;28;20463;-75
2020/12/11 12:09:49;;;;;;;23.53;21.43;;;5.40;99.90;;;;;;4972329;28;20467;-73
2020/12/11 12:12:15;;;;;;;23.83;21.60;;;5.50;99.90;;;;;;4972018;28;20788;-73
2020/12/11 12:14:42;;;;;;;21.70;20.00;;;5.70;99.90;;;;;;4972601;28;20463;-75
2020/12/11 12:17:10;;;;;;;22.13;20.30;;;5.80;99.90;;;;;;4971514;28;20460;-74
2020/12/11 12:19:41;;;;;;;22.37;20.57;;;5.90;99.90;;;;;;4972818;28;21502;-74
2020/12/11 12:30:23;;;;;;;21.13;19.53;;;6.20;99.90;;;;;;4931776;28;20823;-75
2020/12/11 12:36:05;;;;;;;20.40;18.77;;;6.30;99.90;;;;;;5116899;27;20578;-72
2020/12/11 12:38:43;;;;;;;20.20;18.70;;;6.30;99.90;;;;;;5091773;28;20453;-72
2020/12/11 12:43:54;;;;;;;19.80;18.30;;;6.40;99.90;;;;;;5093450;28;20445;-73
2020/12/11 12:46:21;;;;;;;20.33;18.83;;;6.40;99.90;;;;;;5096864;28;20472;-74
2020/12/11 12:48:47;;;;;;;19.57;18.17;;;6.40;99.90;;;;;;5093934;28;20497;-72
2020/12/11 12:51:15;;;;;;;20.27;18.67;;;6.40;99.90;;;;;;5098018;28;20454;-72
2020/12/11 12:53:42;;;;;;;19.63;18.13;;;6.30;99.90;;;;;;5093809;28;20481;-73
2020/12/11 12:58:56;;;;;;;20.03;18.53;;;6.20;99.90;;;;;;5086266;28;20462;-73
2020/12/11 13:01:33;;;;;;;19.70;17.70;;;6.10;99.90;;;;;;5091773;28;20977;-73
2020/12/11 13:04:15;;;;;;;18.60;17.50;;;6.00;99.90;;;;;;5089981;28;20485;-73
2020/12/11 13:06:46;;;;;;;21.03;19.63;;;5.90;99.90;;;;;;5095357;28;20457;-73
2020/12/11 13:09:12;;;;;;;21.93;20.53;;;5.90;99.90;;;;;;5098128;28;20909;-74